sensor_id;sensor_type;location;lat;lon;timestamp;P1;durP1;ratioP1;P2;durP2;ratioP2
48285;SDS011;34102;47.716;10.296;2022-12-29T04:31:50;0.20;;;0.10;;
48285;SDS011;34102;47.716;10.296;2022-12-29T04:34:16;0.40;;;0.10;;
48285;SDS011;34102;47.716;10.296;2022-12-29T04:36:41;0.20;;;0.10;;
48285;SDS011;34102;47.716;10.296;2022-12-29T04:39:06;0.57;;;0.20;;
48285;SDS011;34102;47.716;10.296;2022-12-29T04:41:31;0.50;;;0.10;;
48285;SDS011;34102;47.716;10.296;2022-12-29T04:43:57;0.52;;;0.10;;
48285;SDS011;34102;47.716;10.296;2022-12-29T04:46:22;0.93;;;0.20;;
48285;SDS011;34102;47.716;10.296;2022-12-29T04:48:47;0.50;;;0.10;;
48285;SDS011;34102;47.716;10.296;2022-12-29T04:51:12;0.55;;;0.20;;
48285;SDS011;34102;47.716;10.296;2022-12-29T04:53:38;0.68;;;0.20;;
48285;SDS011;34102;47.716;10.296;2022-12-29T04:56:03;0.30;;;0.10;;
48285;SDS011;34102;47.716;10.296;2022-12-29T04:58:28;2.35;;;0.10;;
48285;SDS011;34102;47.716;10.296;2022-12-29T05:00:54;0.38;;;0.10;;
48285;SDS011;34102;47.716;10.296;2022-12-29T05:03:19;0.80;;;0.20;;
48285;SDS011;34102;47.716;10.296;2022-12-29T05:05:44;1.00;;;0.30;;
48285;SDS011;34102;47.716;10.296;2022-12-29T05:08:09;1.60;;;0.40;;
48285;SDS011;34102;47.716;10.296;2022-12-29T05:10:34;1.20;;;0.40;;
48285;SDS011;34102;47.716;10.296;2022-12-29T05:13:00;3.17;;;1.23;;
48285;SDS011;34102;47.716;10.296;2022-12-29T05:15:25;4.38;;;0.77;;
48285;SDS011;34102;47.716;10.296;2022-12-29T05:17:51;1.90;;;0.60;;
48285;SDS011;34102;47.716;10.296;2022-12-29T05:20:16;1.63;;;0.50;;
48285;SDS011;34102;47.716;10.296;2022-12-29T05:22:42;1.00;;;0.40;;
48285;SDS011;34102;47.716;10.296;2022-12-29T05:25:07;1.15;;;0.40;;
48285;SDS011;34102;47.716;10.296;2022-12-29T05:27:32;0.93;;;0.20;;
48285;SDS011;34102;47.716;10.296;2022-12-29T05:29:58;0.90;;;0.30;;
48285;SDS011;34102;47.716;10.296;2022-12-29T05:32:23;0.90;;;0.30;;
48285;SDS011;34102;47.716;10.296;2022-12-29T05:34:48;2.25;;;0.40;;
48285;SDS011;34102;47.716;10.296;2022-12-29T05:37:14;0.80;;;0.22;;
48285;SDS011;34102;47.716;10.296;2022-12-29T05:39:39;0.43;;;0.20;;
48285;SDS011;34102;47.716;10.296;2022-12-29T05:42:05;1.33;;;0.20;;
48285;SDS011;34102;47.716;10.296;2022-12-29T05:44:30;0.57;;;0.20;;
48285;SDS011;34102;47.716;10.296;2022-12-29T05:46:55;1.70;;;0.30;;
48285;SDS011;34102;47.716;10.296;2022-12-29T05:49:20;0.32;;;0.13;;
48285;SDS011;34102;47.716;10.296;2022-12-29T05:51:46;0.40;;;0.10;;
48285;SDS011;34102;47.716;10.296;2022-12-29T05:54:11;1.15;;;0.40;;
48285;SDS011;34102;47.716;10.296;2022-12-29T05:56:36;0.40;;;0.20;;
48285;SDS011;34102;47.716;10.296;2022-12-29T05:59:01;0.68;;;0.20;;
48285;SDS011;34102;47.716;10.296;2022-12-29T06:01:27;1.02;;;0.10;;
48285;SDS011;34102;47.716;10.296;2022-12-29T06:03:52;3.95;;;2.30;;
48285;SDS011;34102;47.716;10.296;2022-12-29T06:06:17;0.30;;;0.13;;
48285;SDS011;34102;47.716;10.296;2022-12-29T06:08:42;0.85;;;0.15;;
48285;SDS011;34102;47.716;10.296;2022-12-29T06:11:07;0.40;;;0.20;;
48285;SDS011;34102;47.716;10.296;2022-12-29T06:13:33;6.13;;;0.20;;
48285;SDS011;34102;47.716;10.296;2022-12-29T06:15:58;1.38;;;0.52;;
48285;SDS011;34102;47.716;10.296;2022-12-29T06:18:23;0.65;;;0.10;;
48285;SDS011;34102;47.716;10.296;2022-12-29T06:20:48;0.68;;;0.17;;
48285;SDS011;34102;47.716;10.296;2022-12-29T06:23:14;0.68;;;0.10;;
48285;SDS011;34102;47.716;10.296;2022-12-29T06:25:39;0.95;;;0.13;;
48285;SDS011;34102;47.716;10.296;2022-12-29T06:28:04;1.67;;;0.20;;
48285;SDS011;34102;47.716;10.296;2022-12-29T06:30:33;0.77;;;0.15;;
48285;SDS011;34102;47.716;10.296;2022-12-29T06:32:59;0.57;;;0.10;;
48285;SDS011;34102;47.716;10.296;2022-12-29T06:35:24;0.68;;;0.20;;
48285;SDS011;34102;47.716;10.296;2022-12-29T06:37:49;3.72;;;0.82;;
48285;SDS011;34102;47.716;10.296;2022-12-29T06:40:15;0.63;;;0.20;;
48285;SDS011;34102;47.716;10.296;2022-12-29T06:42:40;0.50;;;0.17;;
48285;SDS011;34102;47.716;10.296;2022-12-29T06:45:06;4.65;;;0.60;;
48285;SDS011;34102;47.716;10.296;2022-12-29T06:47:32;1.08;;;0.40;;
48285;SDS011;34102;47.716;10.296;2022-12-29T06:49:57;1.30;;;0.55;;
48285;SDS011;34102;47.716;10.296;2022-12-29T06:52:22;2.55;;;0.70;;
48285;SDS011;34102;47.716;10.296;2022-12-29T06:54:49;3.05;;;0.90;;
48285;SDS011;34102;47.716;10.296;2022-12-29T06:57:14;3.28;;;1.40;;
48285;SDS011;34102;47.716;10.296;2022-12-29T06:59:39;9.52;;;3.50;;
48285;SDS011;34102;47.716;10.296;2022-12-29T07:02:04;9.68;;;3.33;;
48285;SDS011;34102;47.716;10.296;2022-12-29T07:04:30;3.33;;;1.30;;
48285;SDS011;34102;47.716;10.296;2022-12-29T07:06:55;3.72;;;1.25;;
48285;SDS011;34102;47.716;10.296;2022-12-29T07:09:20;2.95;;;1.65;;
48285;SDS011;34102;47.716;10.296;2022-12-29T07:11:46;3.00;;;0.68;;
48285;SDS011;34102;47.716;10.296;2022-12-29T07:14:11;1.85;;;0.65;;
48285;SDS011;34102;47.716;10.296;2022-12-29T07:16:37;1.58;;;0.60;;
48285;SDS011;34102;47.716;10.296;2022-12-29T07:19:02;1.42;;;0.68;;
48285;SDS011;34102;47.716;10.296;2022-12-29T07:21:27;3.67;;;1.05;;
48285;SDS011;34102;47.716;10.296;2022-12-29T07:23:53;4.25;;;0.57;;
48285;SDS011;34102;47.716;10.296;2022-12-29T07:26:18;2.25;;;0.68;;
48285;SDS011;34102;47.716;10.296;2022-12-29T07:28:43;1.20;;;0.75;;
48285;SDS011;34102;47.716;10.296;2022-12-29T07:31:13;0.60;;;0.30;;
48285;SDS011;34102;47.716;10.296;2022-12-29T07:33:38;2.65;;;0.50;;
48285;SDS011;34102;47.716;10.296;2022-12-29T07:36:04;1.10;;;0.40;;
48285;SDS011;34102;47.716;10.296;2022-12-29T07:38:29;3.38;;;0.98;;
48285;SDS011;34102;47.716;10.296;2022-12-29T07:40:58;1.35;;;0.85;;
48285;SDS011;34102;47.716;10.296;2022-12-29T07:43:23;2.45;;;1.20;;
48285;SDS011;34102;47.716;10.296;2022-12-29T07:45:48;3.65;;;1.27;;
48285;SDS011;34102;47.716;10.296;2022-12-29T07:48:13;2.50;;;1.00;;
48285;SDS011;34102;47.716;10.296;2022-12-29T07:50:39;2.88;;;0.85;;
48285;SDS011;34102;47.716;10.296;2022-12-29T07:53:04;1.88;;;0.90;;
48285;SDS011;34102;47.716;10.296;2022-12-29T07:55:29;3.85;;;0.90;;
48285;SDS011;34102;47.716;10.296;2022-12-29T07:57:55;2.13;;;0.70;;
48285;SDS011;34102;47.716;10.296;2022-12-29T08:00:20;1.15;;;0.82;;
48285;SDS011;34102;47.716;10.296;2022-12-29T08:02:45;4.32;;;1.80;;
48285;SDS011;34102;47.716;10.296;2022-12-29T08:05:11;2.05;;;1.15;;
48285;SDS011;34102;47.716;10.296;2022-12-29T08:07:36;1.65;;;0.80;;
48285;SDS011;34102;47.716;10.296;2022-12-29T08:10:02;1.95;;;0.70;;
48285;SDS011;34102;47.716;10.296;2022-12-29T08:12:28;2.75;;;0.73;;
48285;SDS011;34102;47.716;10.296;2022-12-29T08:14:53;1.65;;;0.80;;
48285;SDS011;34102;47.716;10.296;2022-12-29T08:17:18;0.85;;;0.30;;
48285;SDS011;34102;47.716;10.296;2022-12-29T08:19:43;1.15;;;0.40;;
48285;SDS011;34102;47.716;10.296;2022-12-29T08:22:09;1.80;;;0.55;;
48285;SDS011;34102;47.716;10.296;2022-12-29T08:24:34;1.15;;;0.50;;
48285;SDS011;34102;47.716;10.296;2022-12-29T08:27:00;1.70;;;0.80;;
48285;SDS011;34102;47.716;10.296;2022-12-29T08:29:25;1.85;;;0.40;;
48285;SDS011;34102;47.716;10.296;2022-12-29T08:31:52;1.08;;;0.45;;
48285;SDS011;34102;47.716;10.296;2022-12-29T08:34:17;1.65;;;0.55;;
48285;SDS011;34102;47.716;10.296;2022-12-29T08:36:42;1.08;;;0.30;;
48285;SDS011;34102;47.716;10.296;2022-12-29T08:39:07;0.82;;;0.40;;
48285;SDS011;34102;47.716;10.296;2022-12-29T08:41:32;2.30;;;0.30;;
48285;SDS011;34102;47.716;10.296;2022-12-29T08:43:58;0.95;;;0.40;;
48285;SDS011;34102;47.716;10.296;2022-12-29T08:46:23;1.02;;;0.43;;
48285;SDS011;34102;47.716;10.296;2022-12-29T08:48:48;1.45;;;0.60;;
48285;SDS011;34102;47.716;10.296;2022-12-29T08:51:14;0.70;;;0.30;;
48285;SDS011;34102;47.716;10.296;2022-12-29T08:53:39;1.58;;;0.77;;
48285;SDS011;34102;47.716;10.296;2022-12-29T08:56:04;3.60;;;0.80;;
48285;SDS011;34102;47.716;10.296;2022-12-29T08:58:30;1.73;;;0.40;;
48285;SDS011;34102;47.716;10.296;2022-12-29T09:00:55;0.90;;;0.40;;
48285;SDS011;34102;47.716;10.296;2022-12-29T09:03:21;1.10;;;0.50;;
48285;SDS011;34102;47.716;10.296;2022-12-29T09:05:50;2.33;;;0.60;;
48285;SDS011;34102;47.716;10.296;2022-12-29T09:08:15;1.38;;;0.50;;
48285;SDS011;34102;47.716;10.296;2022-12-29T09:10:41;1.20;;;0.60;;
48285;SDS011;34102;47.716;10.296;2022-12-29T09:13:06;1.83;;;0.73;;
48285;SDS011;34102;47.716;10.296;2022-12-29T09:15:31;1.48;;;0.60;;
48285;SDS011;34102;47.716;10.296;2022-12-29T09:17:57;1.80;;;0.90;;
48285;SDS011;34102;47.716;10.296;2022-12-29T09:20:22;1.20;;;0.30;;
48285;SDS011;34102;47.716;10.296;2022-12-29T09:22:47;3.92;;;0.75;;
48285;SDS011;34102;47.716;10.296;2022-12-29T09:25:13;2.00;;;0.60;;
48285;SDS011;34102;47.716;10.296;2022-12-29T09:27:38;0.93;;;0.47;;
48285;SDS011;34102;47.716;10.296;2022-12-29T09:30:04;2.45;;;1.58;;
48285;SDS011;34102;47.716;10.296;2022-12-29T09:32:31;1.30;;;0.65;;
48285;SDS011;34102;47.716;10.296;2022-12-29T09:34:56;1.05;;;0.45;;
48285;SDS011;34102;47.716;10.296;2022-12-29T09:37:22;1.63;;;0.70;;
48285;SDS011;34102;47.716;10.296;2022-12-29T09:39:47;3.50;;;1.40;;
48285;SDS011;34102;47.716;10.296;2022-12-29T09:47:13;1.30;;;0.63;;
48285;SDS011;34102;47.716;10.296;2022-12-29T09:52:23;3.38;;;1.00;;
48285;SDS011;34102;47.716;10.296;2022-12-29T09:58:05;1.30;;;0.65;;
48285;SDS011;34102;47.716;10.296;2022-12-29T10:05:01;2.65;;;0.75;;
48285;SDS011;34102;47.716;10.296;2022-12-29T10:10:56;1.35;;;0.50;;
48285;SDS011;34102;47.716;10.296;2022-12-29T10:15:38;1.27;;;0.60;;
48285;SDS011;34102;47.716;10.296;2022-12-29T10:20:51;2.88;;;0.77;;
48285;SDS011;34102;47.716;10.296;2022-12-29T10:23:28;2.33;;;1.08;;
48285;SDS011;34102;47.716;10.296;2022-12-29T10:25:55;4.40;;;1.50;;
48285;SDS011;34102;47.716;10.296;2022-12-29T10:28:32;2.65;;;1.20;;
48285;SDS011;34102;47.716;10.296;2022-12-29T10:30:58;2.05;;;1.00;;
48285;SDS011;34102;47.716;10.296;2022-12-29T10:33:35;2.03;;;0.55;;
48285;SDS011;34102;47.716;10.296;2022-12-29T10:36:47;2.65;;;0.60;;
48285;SDS011;34102;47.716;10.296;2022-12-29T10:38:48;2.38;;;0.70;;
48285;SDS011;34102;47.716;10.296;2022-12-29T10:43:48;2.90;;;1.00;;
48285;SDS011;34102;47.716;10.296;2022-12-29T10:46:28;2.05;;;1.15;;
48285;SDS011;34102;47.716;10.296;2022-12-29T10:48:54;1.00;;;0.50;;
48285;SDS011;34102;47.716;10.296;2022-12-29T10:51:26;0.95;;;0.70;;
48285;SDS011;34102;47.716;10.296;2022-12-29T10:53:55;2.22;;;0.93;;
48285;SDS011;34102;47.716;10.296;2022-12-29T10:59:14;1.25;;;0.90;;
48285;SDS011;34102;47.716;10.296;2022-12-29T11:01:44;3.10;;;1.05;;
48285;SDS011;34102;47.716;10.296;2022-12-29T11:06:42;1.63;;;0.90;;
48285;SDS011;34102;47.716;10.296;2022-12-29T11:09:15;2.80;;;0.95;;
48285;SDS011;34102;47.716;10.296;2022-12-29T11:11:41;2.47;;;0.98;;
48285;SDS011;34102;47.716;10.296;2022-12-29T11:16:38;2.90;;;0.90;;
48285;SDS011;34102;47.716;10.296;2022-12-29T11:19:04;2.80;;;0.93;;
48285;SDS011;34102;47.716;10.296;2022-12-29T11:23:55;1.48;;;0.63;;
48285;SDS011;34102;47.716;10.296;2022-12-29T11:26:25;3.30;;;0.90;;
48285;SDS011;34102;47.716;10.296;2022-12-29T11:29:05;3.08;;;0.70;;
48285;SDS011;34102;47.716;10.296;2022-12-29T11:31:33;1.92;;;0.75;;
48285;SDS011;34102;47.716;10.296;2022-12-29T11:34:05;1.70;;;0.77;;
48285;SDS011;34102;47.716;10.296;2022-12-29T11:36:31;1.60;;;0.90;;
48285;SDS011;34102;47.716;10.296;2022-12-29T11:38:58;1.95;;;0.50;;
48285;SDS011;34102;47.716;10.296;2022-12-29T11:41:27;0.88;;;0.40;;
48285;SDS011;34102;47.716;10.296;2022-12-29T11:43:53;1.33;;;0.30;;
48285;SDS011;34102;47.716;10.296;2022-12-29T11:46:24;1.80;;;0.20;;
48285;SDS011;34102;47.716;10.296;2022-12-29T11:48:50;0.60;;;0.30;;
48285;SDS011;34102;47.716;10.296;2022-12-29T11:51:26;0.47;;;0.17;;
48285;SDS011;34102;47.716;10.296;2022-12-29T11:54:02;1.85;;;0.20;;
48285;SDS011;34102;47.716;10.296;2022-12-29T11:56:38;0.82;;;0.20;;
48285;SDS011;34102;47.716;10.296;2022-12-29T12:01:49;0.55;;;0.30;;
48285;SDS011;34102;47.716;10.296;2022-12-29T12:04:16;2.58;;;0.50;;
48285;SDS011;34102;47.716;10.296;2022-12-29T12:09:38;1.38;;;0.60;;
48285;SDS011;34102;47.716;10.296;2022-12-29T12:12:08;3.55;;;2.33;;
48285;SDS011;34102;47.716;10.296;2022-12-29T12:14:37;1.58;;;1.00;;
48285;SDS011;34102;47.716;10.296;2022-12-29T12:17:06;1.30;;;0.50;;
48285;SDS011;34102;47.716;10.296;2022-12-29T12:19:46;1.00;;;0.40;;
48285;SDS011;34102;47.716;10.296;2022-12-29T12:22:17;0.70;;;0.20;;
48285;SDS011;34102;47.716;10.296;2022-12-29T12:24:48;0.45;;;0.20;;
48285;SDS011;34102;47.716;10.296;2022-12-29T12:27:21;1.15;;;0.30;;
48285;SDS011;34102;47.716;10.296;2022-12-29T12:29:55;2.80;;;0.40;;
48285;SDS011;34102;47.716;10.296;2022-12-29T12:35:12;1.65;;;0.50;;
48285;SDS011;34102;47.716;10.296;2022-12-29T12:37:41;1.50;;;0.63;;
48285;SDS011;34102;47.716;10.296;2022-12-29T12:50:19;0.50;;;0.20;;
48285;SDS011;34102;47.716;10.296;2022-12-29T12:52:52;1.23;;;0.22;;
48285;SDS011;34102;47.716;10.296;2022-12-29T12:58:42;1.15;;;0.30;;
48285;SDS011;34102;47.716;10.296;2022-12-29T13:00:47;1.48;;;0.30;;
48285;SDS011;34102;47.716;10.296;2022-12-29T13:11:20;1.63;;;0.30;;
48285;SDS011;34102;47.716;10.296;2022-12-29T13:14:05;1.17;;;0.43;;
48285;SDS011;34102;47.716;10.296;2022-12-29T13:19:20;1.03;;;0.40;;
48285;SDS011;34102;47.716;10.296;2022-12-29T13:26:50;1.58;;;0.60;;
48285;SDS011;34102;47.716;10.296;2022-12-29T13:31:52;1.10;;;0.30;;
48285;SDS011;34102;47.716;10.296;2022-12-29T13:37:01;2.40;;;0.30;;
48285;SDS011;34102;47.716;10.296;2022-12-29T13:39:30;0.73;;;0.40;;
48285;SDS011;34102;47.716;10.296;2022-12-29T13:41:57;2.92;;;1.48;;
48285;SDS011;34102;47.716;10.296;2022-12-29T13:44:23;1.27;;;0.43;;
48285;SDS011;34102;47.716;10.296;2022-12-29T13:46:50;1.45;;;0.45;;
48285;SDS011;34102;47.716;10.296;2022-12-29T13:49:19;0.73;;;0.40;;
48285;SDS011;34102;47.716;10.296;2022-12-29T13:51:52;1.13;;;0.30;;
48285;SDS011;34102;47.716;10.296;2022-12-29T13:56:48;1.55;;;0.20;;
48285;SDS011;34102;47.716;10.296;2022-12-29T13:59:28;0.98;;;0.30;;
48285;SDS011;34102;47.716;10.296;2022-12-29T14:02:07;1.25;;;0.40;;
48285;SDS011;34102;47.716;10.296;2022-12-29T14:04:36;0.60;;;0.20;;
48285;SDS011;34102;47.716;10.296;2022-12-29T14:07:19;1.15;;;0.40;;
48285;SDS011;34102;47.716;10.296;2022-12-29T14:14:44;1.50;;;0.30;;
48285;SDS011;34102;47.716;10.296;2022-12-29T14:17:10;1.23;;;0.50;;
48285;SDS011;34102;47.716;10.296;2022-12-29T14:19:38;1.73;;;0.70;;
48285;SDS011;34102;47.716;10.296;2022-12-29T14:22:06;1.50;;;0.60;;
48285;SDS011;34102;47.716;10.296;2022-12-29T14:24:38;1.52;;;0.52;;
48285;SDS011;34102;47.716;10.296;2022-12-29T14:32:09;1.25;;;0.40;;
48285;SDS011;34102;47.716;10.296;2022-12-29T14:34:48;1.52;;;0.50;;
48285;SDS011;34102;47.716;10.296;2022-12-29T14:37:24;3.72;;;0.65;;
48285;SDS011;34102;47.716;10.296;2022-12-29T14:40:01;1.60;;;0.73;;
48285;SDS011;34102;47.716;10.296;2022-12-29T14:42:28;1.83;;;0.90;;
48285;SDS011;34102;47.716;10.296;2022-12-29T14:47:27;2.03;;;0.70;;
48285;SDS011;34102;47.716;10.296;2022-12-29T14:49:56;1.80;;;0.80;;
48285;SDS011;34102;47.716;10.296;2022-12-29T14:52:27;3.88;;;1.92;;
48285;SDS011;34102;47.716;10.296;2022-12-29T14:54:57;3.67;;;1.92;;
48285;SDS011;34102;47.716;10.296;2022-12-29T14:57:38;3.08;;;1.30;;
48285;SDS011;34102;47.716;10.296;2022-12-29T15:00:14;3.22;;;1.35;;
48285;SDS011;34102;47.716;10.296;2022-12-29T15:02:40;3.17;;;1.20;;
48285;SDS011;34102;47.716;10.296;2022-12-29T15:05:10;3.65;;;0.93;;
48285;SDS011;34102;47.716;10.296;2022-12-29T15:07:44;2.05;;;1.08;;
48285;SDS011;34102;47.716;10.296;2022-12-29T15:10:13;2.88;;;1.25;;
48285;SDS011;34102;47.716;10.296;2022-12-29T15:12:40;3.85;;;1.33;;
48285;SDS011;34102;47.716;10.296;2022-12-29T15:23:24;2.57;;;0.80;;
48285;SDS011;34102;47.716;10.296;2022-12-29T15:28:15;3.40;;;1.15;;
48285;SDS011;34102;47.716;10.296;2022-12-29T15:30:54;2.30;;;0.93;;
48285;SDS011;34102;47.716;10.296;2022-12-29T15:33:23;2.05;;;0.60;;
48285;SDS011;34102;47.716;10.296;2022-12-29T15:35:49;1.90;;;0.60;;
48285;SDS011;34102;47.716;10.296;2022-12-29T15:40:50;4.93;;;0.98;;
48285;SDS011;34102;47.716;10.296;2022-12-29T15:45:45;1.38;;;0.75;;
48285;SDS011;34102;47.716;10.296;2022-12-29T15:48:15;1.80;;;0.65;;
48285;SDS011;34102;47.716;10.296;2022-12-29T15:50:42;1.35;;;0.60;;
48285;SDS011;34102;47.716;10.296;2022-12-29T15:53:41;2.08;;;0.93;;
48285;SDS011;34102;47.716;10.296;2022-12-29T15:56:01;2.53;;;1.20;;
48285;SDS011;34102;47.716;10.296;2022-12-29T15:58:31;3.08;;;1.48;;
48285;SDS011;34102;47.716;10.296;2022-12-29T16:01:03;1.52;;;0.70;;
48285;SDS011;34102;47.716;10.296;2022-12-29T16:03:32;4.53;;;2.42;;
48285;SDS011;34102;47.716;10.296;2022-12-29T16:08:43;4.60;;;2.40;;
48285;SDS011;34102;47.716;10.296;2022-12-29T16:11:28;4.82;;;3.05;;
48285;SDS011;34102;47.716;10.296;2022-12-29T16:13:56;5.00;;;2.65;;
48285;SDS011;34102;47.716;10.296;2022-12-29T16:19:58;11.70;;;3.38;;
48285;SDS011;34102;47.716;10.296;2022-12-29T16:22:09;7.43;;;2.72;;
48285;SDS011;34102;47.716;10.296;2022-12-29T16:24:36;13.73;;;6.93;;
48285;SDS011;34102;47.716;10.296;2022-12-29T16:27:14;11.40;;;5.45;;
48285;SDS011;34102;47.716;10.296;2022-12-29T16:29:42;7.35;;;3.95;;
48285;SDS011;34102;47.716;10.296;2022-12-29T16:35:16;15.60;;;9.38;;
48285;SDS011;34102;47.716;10.296;2022-12-29T16:43:02;12.38;;;7.95;;
48285;SDS011;34102;47.716;10.296;2022-12-29T16:50:29;4.75;;;2.40;;
48285;SDS011;34102;47.716;10.296;2022-12-29T16:52:55;3.50;;;1.42;;
48285;SDS011;34102;47.716;10.296;2022-12-29T16:55:20;4.30;;;1.75;;
48285;SDS011;34102;47.716;10.296;2022-12-29T16:57:46;1.95;;;1.15;;
48285;SDS011;34102;47.716;10.296;2022-12-29T17:00:19;2.80;;;1.10;;
48285;SDS011;34102;47.716;10.296;2022-12-29T17:02:45;6.35;;;2.53;;
48285;SDS011;34102;47.716;10.296;2022-12-29T17:05:15;4.13;;;1.48;;
48285;SDS011;34102;47.716;10.296;2022-12-29T17:07:40;3.13;;;1.02;;
48285;SDS011;34102;47.716;10.296;2022-12-29T17:10:06;2.38;;;1.20;;
48285;SDS011;34102;47.716;10.296;2022-12-29T17:12:32;4.60;;;1.20;;
48285;SDS011;34102;47.716;10.296;2022-12-29T17:15:01;3.53;;;1.88;;
48285;SDS011;34102;47.716;10.296;2022-12-29T17:17:33;3.20;;;1.60;;
48285;SDS011;34102;47.716;10.296;2022-12-29T17:20:06;3.50;;;1.30;;
48285;SDS011;34102;47.716;10.296;2022-12-29T17:22:38;2.50;;;1.40;;
48285;SDS011;34102;47.716;10.296;2022-12-29T17:25:03;2.75;;;1.67;;
48285;SDS011;34102;47.716;10.296;2022-12-29T17:29:58;4.68;;;2.05;;
48285;SDS011;34102;47.716;10.296;2022-12-29T17:32:25;3.28;;;1.90;;
48285;SDS011;34102;47.716;10.296;2022-12-29T17:34:50;5.30;;;1.55;;
48285;SDS011;34102;47.716;10.296;2022-12-29T17:37:26;2.70;;;1.27;;
48285;SDS011;34102;47.716;10.296;2022-12-29T17:39:52;3.20;;;1.30;;
48285;SDS011;34102;47.716;10.296;2022-12-29T17:42:18;2.95;;;1.35;;
48285;SDS011;34102;47.716;10.296;2022-12-29T17:44:43;3.38;;;1.67;;
48285;SDS011;34102;47.716;10.296;2022-12-29T17:47:11;3.03;;;1.60;;
48285;SDS011;34102;47.716;10.296;2022-12-29T17:49:37;2.72;;;1.13;;
48285;SDS011;34102;47.716;10.296;2022-12-29T17:52:02;2.60;;;1.05;;
48285;SDS011;34102;47.716;10.296;2022-12-29T17:54:28;2.35;;;1.20;;
48285;SDS011;34102;47.716;10.296;2022-12-29T17:56:54;2.58;;;1.10;;
48285;SDS011;34102;47.716;10.296;2022-12-29T17:59:19;2.92;;;1.30;;
48285;SDS011;34102;47.716;10.296;2022-12-29T18:01:45;2.05;;;1.15;;
48285;SDS011;34102;47.716;10.296;2022-12-29T18:04:19;1.70;;;1.08;;
48285;SDS011;34102;47.716;10.296;2022-12-29T18:06:45;2.20;;;0.80;;
48285;SDS011;34102;47.716;10.296;2022-12-29T18:09:11;1.70;;;0.85;;
48285;SDS011;34102;47.716;10.296;2022-12-29T18:11:37;2.72;;;1.13;;
48285;SDS011;34102;47.716;10.296;2022-12-29T18:14:03;1.48;;;0.88;;
48285;SDS011;34102;47.716;10.296;2022-12-29T18:16:29;1.97;;;0.90;;
48285;SDS011;34102;47.716;10.296;2022-12-29T18:18:54;4.03;;;1.00;;
48285;SDS011;34102;47.716;10.296;2022-12-29T18:21:20;2.60;;;1.10;;
48285;SDS011;34102;47.716;10.296;2022-12-29T18:23:46;2.42;;;1.60;;
48285;SDS011;34102;47.716;10.296;2022-12-29T18:26:16;2.30;;;1.10;;
48285;SDS011;34102;47.716;10.296;2022-12-29T18:28:42;1.90;;;0.90;;
48285;SDS011;34102;47.716;10.296;2022-12-29T18:31:30;4.40;;;1.58;;
48285;SDS011;34102;47.716;10.296;2022-12-29T18:36:19;3.23;;;1.00;;
48285;SDS011;34102;47.716;10.296;2022-12-29T18:38:46;1.15;;;0.47;;
48285;SDS011;34102;47.716;10.296;2022-12-29T18:41:18;1.08;;;0.47;;
48285;SDS011;34102;47.716;10.296;2022-12-29T18:43:44;3.15;;;0.75;;
48285;SDS011;34102;47.716;10.296;2022-12-29T18:46:09;0.70;;;0.20;;
48285;SDS011;34102;47.716;10.296;2022-12-29T18:48:35;1.17;;;0.43;;
48285;SDS011;34102;47.716;10.296;2022-12-29T18:51:00;0.77;;;0.30;;
48285;SDS011;34102;47.716;10.296;2022-12-29T18:53:25;1.05;;;0.40;;
48285;SDS011;34102;47.716;10.296;2022-12-29T18:55:50;0.85;;;0.40;;
48285;SDS011;34102;47.716;10.296;2022-12-29T18:58:16;0.80;;;0.30;;
48285;SDS011;34102;47.716;10.296;2022-12-29T19:00:41;0.40;;;0.20;;
48285;SDS011;34102;47.716;10.296;2022-12-29T19:03:06;1.00;;;0.20;;
48285;SDS011;34102;47.716;10.296;2022-12-29T19:05:37;0.85;;;0.40;;
48285;SDS011;34102;47.716;10.296;2022-12-29T19:08:03;1.00;;;0.30;;
48285;SDS011;34102;47.716;10.296;2022-12-29T19:10:29;1.08;;;0.40;;
48285;SDS011;34102;47.716;10.296;2022-12-29T19:12:54;1.05;;;0.45;;
48285;SDS011;34102;47.716;10.296;2022-12-29T19:15:23;1.35;;;0.30;;
48285;SDS011;34102;47.716;10.296;2022-12-29T19:17:49;1.17;;;0.43;;
48285;SDS011;34102;47.716;10.296;2022-12-29T19:20:37;1.30;;;0.73;;
48285;SDS011;34102;47.716;10.296;2022-12-29T19:25:25;0.73;;;0.30;;
48285;SDS011;34102;47.716;10.296;2022-12-29T19:27:51;2.03;;;0.47;;
48285;SDS011;34102;47.716;10.296;2022-12-29T19:30:16;1.27;;;0.40;;
48285;SDS011;34102;47.716;10.296;2022-12-29T19:32:42;0.77;;;0.40;;
48285;SDS011;34102;47.716;10.296;2022-12-29T19:35:08;0.77;;;0.40;;
48285;SDS011;34102;47.716;10.296;2022-12-29T19:37:33;3.15;;;0.60;;
48285;SDS011;34102;47.716;10.296;2022-12-29T19:40:01;2.40;;;1.40;;
48285;SDS011;34102;47.716;10.296;2022-12-29T19:42:26;1.13;;;0.65;;
48285;SDS011;34102;47.716;10.296;2022-12-29T19:44:51;1.20;;;0.63;;
48285;SDS011;34102;47.716;10.296;2022-12-29T19:47:17;1.40;;;0.63;;
48285;SDS011;34102;47.716;10.296;2022-12-29T19:49:42;1.20;;;0.40;;
48285;SDS011;34102;47.716;10.296;2022-12-29T19:52:07;1.05;;;0.52;;
48285;SDS011;34102;47.716;10.296;2022-12-29T19:54:32;1.23;;;0.40;;
48285;SDS011;34102;47.716;10.296;2022-12-29T19:56:58;2.25;;;0.43;;
48285;SDS011;34102;47.716;10.296;2022-12-29T19:59:23;6.65;;;2.70;;
48285;SDS011;34102;47.716;10.296;2022-12-29T20:01:49;1.25;;;0.50;;
48285;SDS011;34102;47.716;10.296;2022-12-29T20:04:14;2.33;;;0.70;;
48285;SDS011;34102;47.716;10.296;2022-12-29T20:06:39;2.22;;;0.75;;
48285;SDS011;34102;47.716;10.296;2022-12-29T20:09:05;1.20;;;0.50;;
48285;SDS011;34102;47.716;10.296;2022-12-29T20:11:30;1.65;;;0.40;;
48285;SDS011;34102;47.716;10.296;2022-12-29T20:13:55;4.15;;;0.75;;
48285;SDS011;34102;47.716;10.296;2022-12-29T20:16:21;2.15;;;0.68;;
48285;SDS011;34102;47.716;10.296;2022-12-29T20:18:46;3.65;;;0.70;;
48285;SDS011;34102;47.716;10.296;2022-12-29T20:21:16;1.80;;;0.50;;
48285;SDS011;34102;47.716;10.296;2022-12-29T20:23:42;5.63;;;1.73;;
48285;SDS011;34102;47.716;10.296;2022-12-29T20:26:10;2.88;;;1.10;;
48285;SDS011;34102;47.716;10.296;2022-12-29T20:28:37;1.83;;;0.70;;
48285;SDS011;34102;47.716;10.296;2022-12-29T20:31:06;1.85;;;0.50;;
48285;SDS011;34102;47.716;10.296;2022-12-29T20:33:33;1.98;;;0.55;;
48285;SDS011;34102;47.716;10.296;2022-12-29T20:36:09;1.95;;;0.50;;
48285;SDS011;34102;47.716;10.296;2022-12-29T20:38:38;1.92;;;0.65;;
48285;SDS011;34102;47.716;10.296;2022-12-29T20:41:03;1.63;;;0.93;;
48285;SDS011;34102;47.716;10.296;2022-12-29T20:43:29;5.00;;;1.10;;
48285;SDS011;34102;47.716;10.296;2022-12-29T20:45:54;1.55;;;0.60;;
48285;SDS011;34102;47.716;10.296;2022-12-29T20:48:19;1.00;;;0.63;;
48285;SDS011;34102;47.716;10.296;2022-12-29T20:50:44;3.17;;;0.98;;
48285;SDS011;34102;47.716;10.296;2022-12-29T20:53:10;1.33;;;0.73;;
48285;SDS011;34102;47.716;10.296;2022-12-29T20:55:35;1.75;;;0.85;;
48285;SDS011;34102;47.716;10.296;2022-12-29T20:58:01;1.65;;;0.93;;
48285;SDS011;34102;47.716;10.296;2022-12-29T21:00:26;2.03;;;0.77;;
48285;SDS011;34102;47.716;10.296;2022-12-29T21:02:54;0.98;;;0.55;;
48285;SDS011;34102;47.716;10.296;2022-12-29T21:05:19;1.58;;;0.70;;
48285;SDS011;34102;47.716;10.296;2022-12-29T21:07:45;1.15;;;0.70;;
48285;SDS011;34102;47.716;10.296;2022-12-29T21:10:10;1.60;;;0.50;;
48285;SDS011;34102;47.716;10.296;2022-12-29T21:12:35;2.72;;;0.80;;
48285;SDS011;34102;47.716;10.296;2022-12-29T21:15:00;2.35;;;0.50;;
48285;SDS011;34102;47.716;10.296;2022-12-29T21:17:26;4.72;;;0.90;;
48285;SDS011;34102;47.716;10.296;2022-12-29T21:19:51;2.00;;;0.52;;
48285;SDS011;34102;47.716;10.296;2022-12-29T21:22:16;2.78;;;0.63;;